createdAt,value
2023-05-06T02:25:40.088Z,10.03
2023-05-06T02:28:09.584Z,8.87
2023-05-06T02:30:39.091Z,8.30
2023-05-06T02:33:08.741Z,8.33
2023-05-06T02:35:38.407Z,6.70
2023-05-06T02:38:08.040Z,6.97
2023-05-06T02:40:37.530Z,6.25
2023-05-06T02:43:07.050Z,6.37
2023-05-06T02:45:36.602Z,6.75
2023-05-06T02:48:06.429Z,6.50
2023-05-06T02:50:36.829Z,6.50
2023-05-06T02:53:06.335Z,5.73
2023-05-06T02:55:36.064Z,8.43
2023-05-06T02:58:06.301Z,5.90
2023-05-06T03:00:36.719Z,6.30
2023-05-06T03:03:06.240Z,5.67
2023-05-06T03:05:35.973Z,6.67
2023-05-06T03:08:05.763Z,7.55
2023-05-06T03:10:35.295Z,5.83
2023-05-06T03:13:04.964Z,6.75
2023-05-06T03:15:35.348Z,6.97
2023-05-06T03:18:05.650Z,7.97
2023-05-06T03:20:35.999Z,6.23
2023-05-06T03:23:05.923Z,6.08
2023-05-06T03:25:35.954Z,7.25
2023-05-06T03:28:05.755Z,7.00
2023-05-06T03:30:35.818Z,5.72
2023-05-06T03:33:06.857Z,7.42
2023-05-06T03:35:36.894Z,4.97
2023-05-06T03:38:07.219Z,6.15
2023-05-06T03:40:38.646Z,5.63
2023-05-06T03:43:08.755Z,5.62
2023-05-06T03:45:38.433Z,5.37
2023-05-06T03:48:08.139Z,6.35
2023-05-06T03:50:39.596Z,5.37
2023-05-06T03:53:09.250Z,5.40
2023-05-06T03:55:39.577Z,5.53
2023-05-06T03:58:09.399Z,4.13
2023-05-06T04:00:39.037Z,5.50
2023-05-06T04:03:08.664Z,5.92
2023-05-06T04:05:39.982Z,5.43
2023-05-06T04:08:09.648Z,6.30
2023-05-06T04:10:41.154Z,5.42
2023-05-06T04:13:12.390Z,4.80
2023-05-06T04:15:43.700Z,4.53
2023-05-06T04:18:16.578Z,5.50
2023-05-06T04:20:48.846Z,5.45
2023-05-06T04:23:18.421Z,6.15
2023-05-06T04:25:52.005Z,5.33
2023-05-06T04:28:22.341Z,5.73
2023-05-06T04:30:52.910Z,6.55
2023-05-06T04:33:24.353Z,8.20
2023-05-06T04:35:55.046Z,9.17
2023-05-06T04:38:27.293Z,10.67
2023-05-06T04:40:57.550Z,9.65
2023-05-06T04:43:28.334Z,10.05
2023-05-06T04:45:59.753Z,9.50
2023-05-06T04:48:31.018Z,10.17
2023-05-06T04:51:01.065Z,10.72
2023-05-06T04:53:32.466Z,11.50
2023-05-06T04:56:02.321Z,10.93
2023-05-06T04:58:32.233Z,13.68
2023-05-06T05:01:07.395Z,11.25
2023-05-06T05:03:37.175Z,11.87
2023-05-06T05:06:07.621Z,13.00
2023-05-06T05:08:37.916Z,15.13
2023-05-06T05:11:08.733Z,14.70
2023-05-06T05:13:39.004Z,16.90
2023-05-06T05:16:09.111Z,12.23
2023-05-06T05:18:39.878Z,17.55
2023-05-06T05:21:11.266Z,15.10
2023-05-06T05:23:40.902Z,16.02
2023-05-06T05:26:11.513Z,14.43
2023-05-06T05:28:41.481Z,13.55
2023-05-06T05:31:11.423Z,12.93
2023-05-06T05:33:41.075Z,14.87
2023-05-06T05:36:14.080Z,14.43
2023-05-06T05:38:43.726Z,15.20
2023-05-06T05:41:14.957Z,14.23
2023-05-06T05:43:45.144Z,14.43
2023-05-06T05:46:17.197Z,13.85
2023-05-06T05:48:48.013Z,14.60
2023-05-06T05:51:17.783Z,9.95
2023-05-06T05:53:47.905Z,12.55
2023-05-06T05:56:17.817Z,10.70
2023-05-06T05:58:47.850Z,11.63
2023-05-06T06:01:18.095Z,9.40
2023-05-06T06:03:49.124Z,9.43
2023-05-06T06:06:19.226Z,11.13
2023-05-06T06:08:48.784Z,10.50
2023-05-06T06:11:19.125Z,9.70
2023-05-06T06:13:48.764Z,9.65
2023-05-06T06:16:19.026Z,9.43
2023-05-06T06:18:48.665Z,7.28
2023-05-06T06:21:18.233Z,8.78
2023-05-06T06:23:48.527Z,8.63
2023-05-06T06:26:18.154Z,8.27
2023-05-06T06:28:48.198Z,9.43
2023-05-06T06:31:17.858Z,7.97
2023-05-06T06:33:48.015Z,8.08
2023-05-06T06:36:17.503Z,7.23
2023-05-06T06:38:47.078Z,12.35
2023-05-06T06:41:16.568Z,7.87
2023-05-06T06:43:46.072Z,7.45
2023-05-06T06:46:23.645Z,6.27
2023-05-06T06:48:53.600Z,7.37
2023-05-06T06:51:23.130Z,8.20
2023-05-06T06:53:53.800Z,5.08
2023-05-06T06:56:23.399Z,6.43
2023-05-06T06:58:53.487Z,4.55
2023-05-06T07:01:23.599Z,4.80
2023-05-06T07:03:53.201Z,4.78
2023-05-06T07:06:22.714Z,5.03
2023-05-06T07:08:52.316Z,6.43
2023-05-06T07:11:21.946Z,4.55
2023-05-06T07:13:51.527Z,5.08
2023-05-06T07:16:21.859Z,4.37
2023-05-06T07:18:53.047Z,3.63
2023-05-06T07:21:22.808Z,4.23
2023-05-06T07:23:52.299Z,4.27
2023-05-06T07:26:22.643Z,4.70
2023-05-06T07:28:52.170Z,4.67
2023-05-06T07:31:21.820Z,4.78
2023-05-06T07:33:51.376Z,3.95
2023-05-06T07:36:20.884Z,5.47
2023-05-06T07:38:50.374Z,4.50
2023-05-06T07:41:20.126Z,4.85
2023-05-06T07:43:49.666Z,5.03
2023-05-06T07:46:19.476Z,3.90
2023-05-06T07:48:49.120Z,4.53
2023-05-06T07:51:19.562Z,4.03
2023-05-06T07:53:49.083Z,3.47
2023-05-06T07:56:19.557Z,5.62
2023-05-06T07:58:49.615Z,4.78
2023-05-06T08:01:19.076Z,7.40
2023-05-06T08:03:48.746Z,6.95
2023-05-06T08:06:18.449Z,4.90
2023-05-06T08:08:48.023Z,6.42
2023-05-06T08:11:19.335Z,4.10
2023-05-06T08:13:49.192Z,6.17
2023-05-06T08:16:18.816Z,3.62
2023-05-06T08:18:48.501Z,5.92
2023-05-06T08:21:18.016Z,3.20
2023-05-06T08:23:47.505Z,4.07
2023-05-06T08:26:17.026Z,3.15
2023-05-06T08:28:46.594Z,3.80
2023-05-06T08:31:16.105Z,3.00
2023-05-06T08:33:45.872Z,4.90
2023-05-06T08:36:15.426Z,2.53
2023-05-06T08:38:46.580Z,3.50
2023-05-06T08:41:22.877Z,3.12
2023-05-06T08:43:59.544Z,3.22
2023-05-06T08:46:41.266Z,4.05
2023-05-06T08:49:12.485Z,5.12
2023-05-06T08:51:47.889Z,4.93
2023-05-06T08:54:25.239Z,5.00
2023-05-06T08:56:56.811Z,2.77
2023-05-06T08:59:31.154Z,4.07
2023-05-06T09:02:04.863Z,4.27
2023-05-06T09:04:35.846Z,4.45
2023-05-06T09:07:05.356Z,3.62
2023-05-06T09:09:35.565Z,3.50
2023-05-06T09:12:07.072Z,4.00
2023-05-06T09:14:36.651Z,5.10
2023-05-06T09:17:07.052Z,6.22
2023-05-06T09:19:39.598Z,3.92
2023-05-06T09:22:09.758Z,3.27
2023-05-06T09:24:39.452Z,4.83
2023-05-06T09:27:10.641Z,3.15
2023-05-06T09:29:40.138Z,5.85
2023-05-06T09:32:11.599Z,3.77
2023-05-06T09:34:42.837Z,4.22
2023-05-06T09:37:12.511Z,4.40
2023-05-06T09:39:41.983Z,4.27
2023-05-06T09:42:11.842Z,4.05
2023-05-06T09:44:41.572Z,5.67
2023-05-06T09:47:11.526Z,4.95
2023-05-06T09:49:41.628Z,4.83
2023-05-06T09:52:13.340Z,5.37
2023-05-06T09:54:44.761Z,2.60
2023-05-06T09:57:17.507Z,3.50
2023-05-06T09:59:48.867Z,3.92
2023-05-06T10:02:20.403Z,4.37
2023-05-06T10:04:51.174Z,4.40
2023-05-06T10:07:27.338Z,3.65
2023-05-06T10:09:59.432Z,9.13
2023-05-06T10:12:30.533Z,4.67
2023-05-06T10:15:00.143Z,3.67
2023-05-06T10:17:32.006Z,6.22
2023-05-06T10:20:04.945Z,3.70
2023-05-06T10:22:50.839Z,5.70
2023-05-06T10:25:32.456Z,2.70
2023-05-06T10:28:05.606Z,6.33
2023-05-06T10:30:36.363Z,2.67
2023-05-06T10:33:09.008Z,4.37
2023-05-06T10:36:01.153Z,3.93
2023-05-06T10:38:36.708Z,18.98
2023-05-06T10:41:08.513Z,7.13
2023-05-06T10:43:43.972Z,32.58
2023-05-06T10:46:16.669Z,13.10
2023-05-06T10:49:06.417Z,6.58
2023-05-06T10:51:39.378Z,3.27
2023-05-06T10:54:14.288Z,6.28
2023-05-06T10:56:52.845Z,3.42
2023-05-06T10:59:26.226Z,4.27
2023-05-06T11:02:08.262Z,4.73
2023-05-06T11:04:38.187Z,4.47
2023-05-06T11:07:15.431Z,5.28
2023-05-06T11:10:04.901Z,20.95
2023-05-06T11:12:49.610Z,9.35
2023-05-06T11:15:23.319Z,5.67
2023-05-06T11:17:57.754Z,5.45
2023-05-06T11:20:28.420Z,5.90
2023-05-06T11:22:57.947Z,4.00
2023-05-06T11:25:43.909Z,3.98
2023-05-06T11:28:14.920Z,5.58
2023-05-06T11:30:46.706Z,4.23
2023-05-06T11:33:20.519Z,4.17
2023-05-06T11:35:50.053Z,6.72
2023-05-06T11:38:19.644Z,4.97
2023-05-06T11:40:50.577Z,6.35
2023-05-06T11:43:20.165Z,3.37
2023-05-06T11:45:51.807Z,3.20
2023-05-06T11:48:21.322Z,4.30
2023-05-06T11:50:51.582Z,4.50
2023-05-06T11:53:23.846Z,4.87
2023-05-06T11:55:55.238Z,7.90
2023-05-06T11:58:29.564Z,4.30
2023-05-06T12:01:01.209Z,3.60
2023-05-06T12:03:32.842Z,3.75
2023-05-06T12:06:03.399Z,6.73
2023-05-06T12:08:37.820Z,3.92
2023-05-06T12:11:09.766Z,3.72
2023-05-06T12:13:41.001Z,5.67
2023-05-06T12:16:12.415Z,7.17
2023-05-06T12:18:42.817Z,4.13
2023-05-06T12:21:12.367Z,3.80
2023-05-06T12:23:53.603Z,4.67
2023-05-06T12:26:23.248Z,4.00
2023-05-06T12:29:14.301Z,3.87
2023-05-06T12:31:44.722Z,5.35
2023-05-06T12:34:19.035Z,3.03
2023-05-06T12:36:48.719Z,5.53
2023-05-06T12:39:19.000Z,3.40
2023-05-06T12:41:48.701Z,5.40
2023-05-06T12:44:36.382Z,4.90
2023-05-06T12:47:08.812Z,5.00
2023-05-06T12:49:55.929Z,3.85
2023-05-06T12:52:28.656Z,3.50
2023-05-06T12:54:58.626Z,5.43
2023-05-06T12:57:28.184Z,8.23
2023-05-06T12:59:57.686Z,13.25
2023-05-06T13:02:27.314Z,5.00
2023-05-06T13:04:57.082Z,3.20
2023-05-06T13:07:26.676Z,3.60
2023-05-06T13:09:56.258Z,5.22
2023-05-06T13:12:25.886Z,3.83
2023-05-06T13:14:55.454Z,3.27
2023-05-06T13:17:26.489Z,5.42
2023-05-06T13:19:58.960Z,3.95
2023-05-06T13:22:28.991Z,5.73
2023-05-06T13:24:58.478Z,7.70
2023-05-06T13:27:31.793Z,26.93
2023-05-06T13:30:01.293Z,15.68
2023-05-06T13:32:30.917Z,9.83
2023-05-06T13:35:00.395Z,4.20
2023-05-06T13:37:29.969Z,6.27
2023-05-06T13:39:59.596Z,9.90
2023-05-06T13:42:29.171Z,7.30
2023-05-06T13:44:58.677Z,3.92
2023-05-06T13:47:28.368Z,5.30
2023-05-06T13:49:57.840Z,4.28
2023-05-06T13:52:28.661Z,5.97
2023-05-06T13:54:58.888Z,4.40
2023-05-06T13:57:28.734Z,6.20
2023-05-06T13:59:58.220Z,7.67
2023-05-06T14:02:27.741Z,7.13
